createdAt,value
2023-04-06T00:01:06.877Z,0.2
2023-04-06T00:03:06.484Z,0.4
2023-04-06T00:05:07.618Z,0.4
2023-04-06T00:07:07.247Z,0.5
2023-04-06T00:09:06.450Z,0.6
2023-04-06T00:11:08.879Z,0.5
2023-04-06T00:15:12.553Z,0.2
2023-04-06T00:17:12.764Z,0.2
2023-04-06T00:19:08.950Z,0.3
2023-04-06T00:23:09.516Z,0.2
2023-04-06T00:25:06.755Z,0.2
2023-04-06T00:27:06.357Z,0.2
2023-04-06T00:29:06.703Z,0.3
2023-04-06T00:31:12.685Z,0.3
2023-04-06T00:33:09.187Z,0.3
2023-04-06T00:35:09.513Z,-0.1
2023-04-06T00:37:07.578Z,0
2023-04-06T00:39:06.498Z,0
2023-04-06T00:41:08.408Z,0.1
2023-04-06T00:43:07.578Z,0.2
2023-04-06T00:45:09.803Z,0.3
2023-04-06T00:47:06.313Z,0.1
2023-04-06T00:49:07.291Z,0.2
2023-04-06T00:51:09.147Z,0.2
2023-04-06T00:53:09.527Z,0.1
2023-04-06T00:55:07.142Z,0.1
2023-04-06T00:57:12.760Z,0.1
2023-04-06T01:01:09.589Z,0
2023-04-06T01:03:09.590Z,0.1
2023-04-06T01:05:07.651Z,-0.1
2023-04-06T01:07:07.654Z,0.1
2023-04-06T01:09:06.663Z,0.3
2023-04-06T01:11:09.530Z,0.2
2023-04-06T01:13:06.738Z,0.3
2023-04-06T01:15:06.280Z,0.1
2023-04-06T01:17:12.625Z,0.2
2023-04-06T01:19:08.336Z,0.3
2023-04-06T01:21:08.876Z,0.4
2023-04-06T01:23:08.926Z,0.4
2023-04-06T01:25:06.796Z,0.5
2023-04-06T01:27:06.308Z,0.4
2023-04-06T01:29:06.529Z,0.4
2023-04-06T01:31:08.568Z,0.4
2023-04-06T01:33:06.779Z,0.4
2023-04-06T01:35:09.550Z,0.4
2023-04-06T01:37:10.237Z,0.4
2023-04-06T01:39:06.475Z,0.2
2023-04-06T01:41:09.831Z,0.1
2023-04-06T01:43:09.511Z,0.2
2023-04-06T01:45:09.555Z,0.4
2023-04-06T01:47:06.310Z,0.4
2023-04-06T01:49:08.306Z,0.3
2023-04-06T01:51:09.515Z,0.2
2023-04-06T01:53:06.312Z,0
2023-04-06T01:55:11.226Z,0
2023-04-06T01:57:12.830Z,-0.1
2023-04-06T01:59:06.673Z,-0.1
2023-04-06T02:01:09.548Z,-0.1
2023-04-06T02:03:09.579Z,-0.2
2023-04-06T02:05:09.447Z,-0.2
2023-04-06T02:07:09.139Z,-0.2
2023-04-06T02:09:10.027Z,-0.1
2023-04-06T02:11:06.343Z,0
2023-04-06T02:13:09.751Z,-0.2
2023-04-06T02:15:09.572Z,-0.2
2023-04-06T02:17:12.814Z,-0.2
2023-04-06T02:23:08.166Z,-0.4
2023-04-06T02:25:09.198Z,-0.5
2023-04-06T02:27:09.555Z,-0.5
2023-04-06T02:29:09.671Z,-0.5
2023-04-06T02:31:09.462Z,-0.4
2023-04-06T02:33:07.134Z,-0.3
2023-04-06T02:35:07.579Z,-0.3
2023-04-06T02:37:12.792Z,-0.3
2023-04-06T02:39:09.677Z,-0.3
2023-04-06T02:41:09.401Z,-0.4
2023-04-06T02:43:09.780Z,-0.4
2023-04-06T02:45:18.889Z,-0.3
2023-04-06T02:47:07.556Z,-0.5
2023-04-06T02:49:09.609Z,-0.6
2023-04-06T02:51:09.607Z,-0.5
2023-04-06T02:53:06.401Z,-0.5
2023-04-06T02:57:09.600Z,-0.5
2023-04-06T02:59:06.965Z,-0.5
2023-04-06T03:01:06.922Z,-0.6
2023-04-06T03:03:09.421Z,-0.6
2023-04-06T03:05:09.561Z,-0.7
2023-04-06T03:07:07.665Z,-0.7
2023-04-06T03:09:06.504Z,-0.7
2023-04-06T03:11:06.405Z,-0.6
2023-04-06T03:13:07.632Z,-0.7
2023-04-06T03:15:06.418Z,-0.7
2023-04-06T03:17:07.628Z,-0.6
2023-04-06T03:19:07.752Z,-0.7
2023-04-06T03:21:09.174Z,-0.8
2023-04-06T03:23:09.756Z,-0.8
2023-04-06T03:25:07.522Z,-0.7
2023-04-06T03:27:07.719Z,-0.7
2023-04-06T03:29:09.984Z,-0.8
2023-04-06T03:31:06.810Z,-0.6
2023-04-06T03:35:09.130Z,-0.8
2023-04-06T03:37:10.139Z,-0.8
2023-04-06T03:39:10.302Z,-0.9
2023-04-06T03:41:06.286Z,-0.8
2023-04-06T03:43:07.207Z,-0.8
2023-04-06T03:45:06.305Z,-0.9
2023-04-06T03:47:09.610Z,-1.1
2023-04-06T03:49:07.047Z,-1.3
2023-04-06T03:53:12.261Z,-1.7
2023-04-06T03:55:07.252Z,-1.6
2023-04-06T03:57:09.526Z,-1.4
2023-04-06T03:59:09.214Z,-1.5
2023-04-06T04:01:06.820Z,-1.4
2023-04-06T04:03:09.892Z,-1.4
2023-04-06T04:05:14.260Z,-1.3
2023-04-06T04:07:09.772Z,-1.3
2023-04-06T04:09:06.356Z,-1.4
2023-04-06T04:13:08.308Z,-1.1
2023-04-06T04:15:06.671Z,-1.2
2023-04-06T04:19:06.949Z,-1.3
2023-04-06T04:21:06.333Z,-1.3
2023-04-06T04:23:06.399Z,-1.4
2023-04-06T04:27:06.278Z,-1.3
2023-04-06T04:29:07.187Z,-1.1
2023-04-06T04:31:06.870Z,-1.2
2023-04-06T04:33:09.221Z,-1.2
2023-04-06T04:37:07.296Z,-1.3
2023-04-06T04:39:07.026Z,-1.5
2023-04-06T04:41:06.361Z,-1.4
2023-04-06T04:43:07.283Z,-1.4
2023-04-06T04:45:06.306Z,-1.3
2023-04-06T04:47:10.717Z,-1.4
2023-04-06T04:49:09.349Z,-1.6
2023-04-06T04:51:06.377Z,-1.6
2023-04-06T04:53:07.870Z,-1.5
2023-04-06T04:57:06.744Z,-1.7
2023-04-06T05:01:09.883Z,-1.4
2023-04-06T05:03:06.835Z,-1.4
2023-04-06T05:05:06.339Z,-1.4
2023-04-06T05:07:06.999Z,-1.4
2023-04-06T05:09:06.470Z,-1.6
2023-04-06T05:13:06.824Z,-1.3
2023-04-06T05:15:06.290Z,-1.4
2023-04-06T05:17:06.415Z,-1.4
2023-04-06T05:19:07.569Z,-1.3
2023-04-06T05:21:06.325Z,-1.3
2023-04-06T05:25:07.223Z,-1.3
2023-04-06T05:29:06.653Z,-1.3
2023-04-06T05:31:06.902Z,-1.4
2023-04-06T05:33:07.201Z,-1.3
2023-04-06T05:35:06.430Z,-1.1
2023-04-06T05:37:06.828Z,-1
2023-04-06T05:41:11.049Z,-0.9
2023-04-06T05:43:07.245Z,-0.9
2023-04-06T05:45:06.373Z,-0.9
2023-04-06T05:47:06.899Z,-0.8
2023-04-06T05:49:09.959Z,-0.8
2023-04-06T05:51:06.767Z,-0.8
2023-04-06T05:53:07.648Z,-0.7
2023-04-06T05:55:11.421Z,-0.6
2023-04-06T05:57:06.869Z,-0.6
2023-04-06T05:59:06.583Z,-0.3
2023-04-06T06:01:09.935Z,-0.2
2023-04-06T06:03:06.768Z,-0.1
2023-04-06T06:07:07.077Z,0.1
2023-04-06T06:09:07.000Z,0.1
2023-04-06T06:11:06.408Z,0.2
2023-04-06T06:15:09.537Z,0.2
2023-04-06T06:17:12.733Z,0.3
2023-04-06T06:19:07.464Z,0.4
2023-04-06T06:21:06.391Z,0.5
2023-04-06T06:23:06.777Z,0.6
2023-04-06T06:25:06.892Z,0.8
2023-04-06T06:27:06.778Z,0.9
2023-04-06T06:29:06.631Z,1.5
2023-04-06T06:31:13.535Z,4
2023-04-06T06:33:06.365Z,4.1
2023-04-06T06:35:06.351Z,4.9
2023-04-06T06:37:06.891Z,5.6
2023-04-06T06:39:06.667Z,6.3
2023-04-06T06:41:06.896Z,6.1
2023-04-06T06:45:13.038Z,6.5
2023-04-06T06:49:09.850Z,6.7
2023-04-06T06:51:06.452Z,6.7
2023-04-06T06:53:09.165Z,6.6
2023-04-06T06:55:06.858Z,6.7
2023-04-06T06:57:06.361Z,6.8
2023-04-06T07:01:09.165Z,6.8
2023-04-06T07:03:06.465Z,6.8
2023-04-06T07:05:13.199Z,6.8
2023-04-06T07:07:06.977Z,6.9
2023-04-06T07:11:06.375Z,7.1
2023-04-06T07:13:06.903Z,7.1
2023-04-06T07:15:06.301Z,7.2
2023-04-06T07:17:09.830Z,7.3
2023-04-06T07:19:06.899Z,7.3
2023-04-06T07:21:10.095Z,7.2
2023-04-06T07:23:06.351Z,7.3
2023-04-06T07:25:07.749Z,7.4
2023-04-06T07:27:09.596Z,7.5
2023-04-06T07:33:06.381Z,7.6
2023-04-06T07:35:06.347Z,7.8
2023-04-06T07:37:06.959Z,7.8
2023-04-06T07:43:07.618Z,7.9
2023-04-06T07:45:06.352Z,7.8
2023-04-06T07:47:06.839Z,7.5
2023-04-06T07:49:09.640Z,7.6
2023-04-06T07:51:06.358Z,7.7
2023-04-06T07:53:06.379Z,7.5
2023-04-06T07:55:08.225Z,7.9
2023-04-06T07:57:06.467Z,7.9
2023-04-06T08:03:06.507Z,8.3
2023-04-06T08:05:06.385Z,8.5
2023-04-06T08:07:06.937Z,7.9
2023-04-06T08:11:06.452Z,8.6
2023-04-06T08:13:10.039Z,8.7
2023-04-06T08:17:06.721Z,8.4
2023-04-06T08:19:09.724Z,8.6
2023-04-06T08:21:06.854Z,8.5
2023-04-06T08:23:06.512Z,8.8
2023-04-06T08:25:06.937Z,8.7
2023-04-06T08:27:06.497Z,8.7
2023-04-06T08:29:07.205Z,8.8
2023-04-06T08:31:06.995Z,8.8
2023-04-06T08:33:06.546Z,8.7
2023-04-06T08:35:06.476Z,9.1
2023-04-06T08:37:09.770Z,9.1
2023-04-06T08:39:06.850Z,8.9
2023-04-06T08:41:08.110Z,9
2023-04-06T08:43:06.943Z,9.1
2023-04-06T08:47:06.396Z,9.3
2023-04-06T08:49:06.925Z,9.4
2023-04-06T08:51:06.908Z,9.3
2023-04-06T08:53:06.843Z,9.3
2023-04-06T08:55:07.528Z,9.3
2023-04-06T08:57:06.374Z,9.1
2023-04-06T08:59:06.381Z,9.1
2023-04-06T09:01:06.969Z,9.1
2023-04-06T09:05:08.176Z,9.3
2023-04-06T09:07:07.321Z,9.4
2023-04-06T09:09:06.368Z,9.4
2023-04-06T09:11:06.358Z,9.2
2023-04-06T09:13:09.593Z,9.2
2023-04-06T09:15:06.797Z,9.3
2023-04-06T09:17:06.465Z,9.4
2023-04-06T09:19:06.982Z,9.4
2023-04-06T09:21:09.654Z,9.3
2023-04-06T09:23:06.370Z,9.3
2023-04-06T09:25:06.987Z,9.3
2023-04-06T09:27:06.471Z,9.3
2023-04-06T09:29:08.978Z,9.4
2023-04-06T09:31:07.385Z,9.6
2023-04-06T09:33:06.403Z,9.6
2023-04-06T09:35:06.382Z,9.7
2023-04-06T09:37:06.998Z,9.6
2023-04-06T09:39:06.369Z,9.7
2023-04-06T09:41:06.900Z,9.8
2023-04-06T09:43:07.398Z,9.8
2023-04-06T09:45:06.785Z,9.9
2023-04-06T09:47:06.491Z,9.8
2023-04-06T09:49:07.176Z,9.7
2023-04-06T09:51:06.517Z,9.7
2023-04-06T09:53:06.864Z,10
2023-04-06T09:57:06.424Z,10.1
2023-04-06T09:59:06.452Z,9.8
2023-04-06T10:01:07.729Z,9.9
2023-04-06T10:03:09.200Z,9.9
2023-04-06T10:07:08.933Z,10
2023-04-06T10:09:06.843Z,10
2023-04-06T10:11:09.296Z,10
2023-04-06T10:13:07.262Z,9.9
2023-04-06T10:15:10.221Z,9.8
2023-04-06T10:17:06.847Z,9.8
2023-04-06T10:19:07.413Z,10
2023-04-06T10:25:06.863Z,9.2
2023-04-06T10:27:09.556Z,9
2023-04-06T10:31:07.044Z,9.3
2023-04-06T10:33:06.524Z,9.2
2023-04-06T10:35:06.484Z,9.4
2023-04-06T10:37:07.405Z,9.4
2023-04-06T10:39:06.776Z,9.4
2023-04-06T10:41:06.919Z,9.5
2023-04-06T10:43:07.766Z,9.5
2023-04-06T10:45:06.813Z,9.6
2023-04-06T10:47:06.385Z,9.6
2023-04-06T10:49:06.878Z,9.6
2023-04-06T10:51:06.961Z,9.7
2023-04-06T10:53:06.396Z,9.8
2023-04-06T10:55:06.881Z,9.9
2023-04-06T10:57:06.430Z,9.8
2023-04-06T10:59:06.403Z,9.7
2023-04-06T11:03:06.902Z,9.7
2023-04-06T11:05:06.451Z,9.7
2023-04-06T11:07:07.337Z,9.9
2023-04-06T11:09:06.406Z,10
2023-04-06T11:11:06.504Z,9.9
2023-04-06T11:13:06.928Z,9.8
2023-04-06T11:15:06.486Z,9.8
2023-04-06T11:17:06.510Z,9.9
2023-04-06T11:19:07.357Z,10
2023-04-06T11:21:06.372Z,10.1
2023-04-06T11:23:06.415Z,10.1
2023-04-06T11:25:06.970Z,10
2023-04-06T11:27:06.483Z,9.7
2023-04-06T11:29:06.883Z,9.7
2023-04-06T11:31:07.020Z,9.7
2023-04-06T11:33:06.510Z,9.5
2023-04-06T11:35:06.393Z,9.4
2023-04-06T11:37:06.950Z,9.5
2023-04-06T11:39:09.393Z,9.7
2023-04-06T11:41:06.451Z,9.8
2023-04-06T11:43:06.863Z,9.9
2023-04-06T11:45:11.172Z,9.9
2023-04-06T11:47:06.397Z,10
2023-04-06T11:49:07.381Z,10.1
2023-04-06T11:51:06.404Z,10.2
2023-04-06T11:53:06.850Z,10.4
2023-04-06T11:55:09.979Z,10.4
2023-04-06T11:57:06.415Z,10.4
2023-04-06T11:59:11.779Z,10.4
2023-04-06T12:01:06.890Z,10.5
2023-04-06T12:03:06.489Z,10.5
2023-04-06T12:05:07.789Z,10.5
2023-04-06T12:07:07.279Z,10.6
2023-04-06T12:09:06.365Z,10.7
2023-04-06T12:11:06.428Z,10.7
2023-04-06T12:15:06.371Z,10.6
2023-04-06T12:17:06.431Z,10.6
2023-04-06T12:19:06.956Z,10.6
2023-04-06T12:21:16.262Z,10.6
2023-04-06T12:23:06.861Z,10.6
2023-04-06T12:25:08.716Z,10.6
2023-04-06T12:29:07.847Z,10.7
2023-04-06T12:31:06.922Z,10.8
2023-04-06T12:33:06.491Z,10.8
2023-04-06T12:35:06.398Z,10.7
2023-04-06T12:37:09.856Z,10.8
2023-04-06T12:39:06.365Z,10.8
2023-04-06T12:41:06.472Z,10.9
2023-04-06T12:43:06.878Z,10.9
2023-04-06T12:45:09.705Z,11
2023-04-06T12:47:06.406Z,11.1
2023-04-06T12:49:06.861Z,11
2023-04-06T12:53:07.862Z,10.8
2023-04-06T12:55:06.905Z,10.7
2023-04-06T12:57:06.409Z,10.6
2023-04-06T12:59:06.445Z,10.6
2023-04-06T13:01:06.909Z,10.7
2023-04-06T13:03:07.265Z,10.8
2023-04-06T13:05:06.890Z,10.9
2023-04-06T13:07:06.907Z,10.9
2023-04-06T13:09:09.552Z,10.9
2023-04-06T13:11:06.450Z,10.9
2023-04-06T13:13:07.600Z,10.9
2023-04-06T13:15:06.776Z,10.8
2023-04-06T13:17:06.521Z,10.8
2023-04-06T13:19:06.918Z,11
2023-04-06T13:21:06.413Z,11
2023-04-06T13:23:06.462Z,11
2023-04-06T13:25:06.845Z,10.9
2023-04-06T13:27:06.409Z,10.8
2023-04-06T13:29:06.925Z,11
2023-04-06T13:31:10.472Z,11.1
2023-04-06T13:35:06.482Z,11.1
2023-04-06T13:37:08.324Z,11.1
2023-04-06T13:39:06.414Z,11.1
2023-04-06T13:41:06.393Z,11.2
2023-04-06T13:43:06.911Z,11.2
2023-04-06T13:45:06.904Z,11.2
2023-04-06T13:47:08.169Z,11.2
2023-04-06T13:49:08.346Z,11.2
2023-04-06T13:51:06.952Z,11.2
2023-04-06T13:53:09.643Z,11.2
2023-04-06T13:55:08.184Z,11.1
2023-04-06T13:57:07.244Z,11
2023-04-06T13:59:07.285Z,11
2023-04-06T14:01:07.524Z,11.1
2023-04-06T14:03:07.011Z,11.1
2023-04-06T14:07:07.337Z,11
2023-04-06T14:09:06.847Z,11
2023-04-06T14:11:13.725Z,10.9
2023-04-06T14:13:07.779Z,11
2023-04-06T14:15:06.850Z,11
2023-04-06T14:17:06.972Z,11.1
2023-04-06T14:19:10.354Z,11.1
2023-04-06T14:21:07.205Z,11.2
2023-04-06T14:23:07.425Z,11.2
2023-04-06T14:25:07.387Z,11.1
2023-04-06T14:29:06.871Z,11.1
2023-04-06T14:31:10.513Z,11.1
2023-04-06T14:33:06.895Z,11.1
2023-04-06T14:35:07.902Z,11.2
2023-04-06T14:37:07.784Z,11
2023-04-06T14:39:06.869Z,11.1
2023-04-06T14:41:08.943Z,11.1
2023-04-06T14:43:07.341Z,11
2023-04-06T14:45:07.265Z,11
2023-04-06T14:47:06.956Z,11.1
2023-04-06T14:49:07.348Z,11.1
2023-04-06T14:51:06.856Z,11.1
2023-04-06T14:55:07.335Z,11.1
2023-04-06T14:57:07.629Z,11.1
2023-04-06T14:59:06.893Z,11
2023-04-06T15:01:08.760Z,10.9
2023-04-06T15:03:06.946Z,10.9
2023-04-06T15:05:08.192Z,10.9
2023-04-06T15:07:07.695Z,10.9
2023-04-06T15:09:07.316Z,10.9
2023-04-06T15:11:06.875Z,10.9
2023-04-06T15:13:07.317Z,10.9
2023-04-06T15:19:07.325Z,10.9
2023-04-06T15:21:06.890Z,10.9
2023-04-06T15:23:08.188Z,11
2023-04-06T15:25:07.335Z,11
2023-04-06T15:27:06.861Z,11
2023-04-06T15:29:06.872Z,11
2023-04-06T15:33:06.914Z,10.9
2023-04-06T15:35:06.853Z,10.9
2023-04-06T15:37:09.023Z,10.9
2023-04-06T15:39:06.881Z,10.9
2023-04-06T15:41:09.685Z,10.8
2023-04-06T15:43:07.353Z,10.8
2023-04-06T15:45:06.889Z,10.8
2023-04-06T15:51:06.889Z,10.8
2023-04-06T15:53:06.851Z,10.8
2023-04-06T15:55:07.490Z,10.7
2023-04-06T15:59:06.882Z,10.7
2023-04-06T16:01:07.339Z,10.7
2023-04-06T16:03:10.558Z,10.7
2023-04-06T16:05:07.289Z,10.7
2023-04-06T16:07:07.776Z,10.7
2023-04-06T16:09:06.873Z,10.8
2023-04-06T16:11:08.213Z,10.8
2023-04-06T16:13:07.360Z,10.8
2023-04-06T16:15:06.860Z,10.7
2023-04-06T16:19:07.353Z,10.7
2023-04-06T16:21:07.645Z,10.7
2023-04-06T16:23:07.269Z,10.7
2023-04-06T16:25:07.836Z,10.7
2023-04-06T16:27:06.875Z,10.6
2023-04-06T16:31:07.434Z,10.6
2023-04-06T16:33:07.359Z,10.6
2023-04-06T16:35:07.266Z,10.6
2023-04-06T16:37:07.792Z,10.5
2023-04-06T16:39:06.884Z,10.5
2023-04-06T16:41:06.876Z,10.5
2023-04-06T16:43:08.681Z,10.5
2023-04-06T16:45:06.890Z,10.5
2023-04-06T16:47:06.876Z,10.5
2023-04-06T16:49:07.873Z,10.4
2023-04-06T16:51:06.887Z,10.4
2023-04-06T16:53:06.868Z,10.4
2023-04-06T16:55:07.366Z,10.4
2023-04-06T16:57:06.899Z,10.3
2023-04-06T17:03:07.044Z,10.3
2023-04-06T17:05:06.889Z,10.2
2023-04-06T17:07:07.775Z,10.2
2023-04-06T17:09:07.035Z,10.2
2023-04-06T17:11:07.274Z,10.1
2023-04-06T17:13:08.115Z,10.1
2023-04-06T17:15:06.881Z,9.9
2023-04-06T17:17:06.913Z,9.6
2023-04-06T17:19:07.826Z,9.6
2023-04-06T17:21:07.369Z,9.8
2023-04-06T17:23:06.880Z,9.7
2023-04-06T17:25:07.347Z,9.6
2023-04-06T17:27:06.897Z,9.5
2023-04-06T17:29:10.163Z,9.5
2023-04-06T17:31:07.427Z,9.5
2023-04-06T17:33:06.914Z,9.4
2023-04-06T17:35:07.649Z,9.4
2023-04-06T17:39:06.885Z,9
2023-04-06T17:41:06.863Z,8.9
2023-04-06T17:45:06.887Z,8.5
2023-04-06T17:47:07.321Z,8.2
2023-04-06T17:49:07.330Z,8.1
2023-04-06T17:51:06.857Z,7.9
2023-04-06T17:53:07.311Z,7.9
2023-04-06T17:55:07.367Z,8.1
2023-04-06T17:57:07.637Z,8.1
2023-04-06T17:59:07.298Z,8
2023-04-06T18:01:07.455Z,8.2
2023-04-06T18:03:06.891Z,8.2
2023-04-06T18:05:08.226Z,8
2023-04-06T18:07:07.769Z,7.8
2023-04-06T18:09:06.917Z,7.8
2023-04-06T18:11:07.296Z,7.8
2023-04-06T18:13:07.393Z,7.9
2023-04-06T18:15:06.921Z,7.9
2023-04-06T18:17:08.492Z,7.8
2023-04-06T18:19:07.876Z,7.5
2023-04-06T18:21:06.880Z,7.4
2023-04-06T18:23:16.801Z,7.5
2023-04-06T18:25:07.362Z,7.6
2023-04-06T18:27:06.870Z,7.4
2023-04-06T18:29:08.229Z,7.3
2023-04-06T18:31:07.840Z,7.2
2023-04-06T18:33:07.749Z,7.3
2023-04-06T18:35:06.885Z,7.2
2023-04-06T18:37:07.380Z,7
2023-04-06T18:39:06.909Z,7
2023-04-06T18:41:06.894Z,7
2023-04-06T18:43:10.363Z,6.8
2023-04-06T18:45:06.917Z,6.7
2023-04-06T18:47:06.961Z,6.7
2023-04-06T18:49:09.073Z,6.4
2023-04-06T18:51:06.916Z,6.4
2023-04-06T18:53:06.864Z,6.4
2023-04-06T18:55:09.968Z,6.4
2023-04-06T19:01:07.336Z,6.5
2023-04-06T19:03:07.188Z,6.4
2023-04-06T19:07:07.395Z,6.1
2023-04-06T19:09:06.887Z,6.1
2023-04-06T19:11:06.972Z,6.1
2023-04-06T19:13:08.679Z,6.4
2023-04-06T19:15:06.892Z,6.2
2023-04-06T19:17:06.882Z,6.3
2023-04-06T19:19:07.385Z,6.2
2023-04-06T19:21:09.861Z,6.4
2023-04-06T19:23:07.288Z,6.5
2023-04-06T19:25:07.409Z,6.4
2023-04-06T19:27:06.952Z,6.3
2023-04-06T19:29:09.715Z,6.2
2023-04-06T19:33:07.358Z,6.1
2023-04-06T19:35:07.607Z,6.1
2023-04-06T19:37:07.803Z,6.1
2023-04-06T19:39:06.892Z,6
2023-04-06T19:41:06.905Z,5.8
2023-04-06T19:43:10.614Z,5.9
2023-04-06T19:45:06.885Z,5.9
2023-04-06T19:47:06.882Z,5.8
2023-04-06T19:49:11.433Z,6
2023-04-06T19:51:06.880Z,6
2023-04-06T19:53:07.266Z,6.1
2023-04-06T19:55:07.361Z,6.2
2023-04-06T19:57:06.902Z,6.4
2023-04-06T19:59:06.906Z,6.4
2023-04-06T20:01:10.448Z,6.3
2023-04-06T20:05:06.938Z,6.3
2023-04-06T20:09:06.876Z,6.2
2023-04-06T20:11:06.903Z,6.3
2023-04-06T20:15:06.905Z,6.3
2023-04-06T20:17:09.489Z,6.4
2023-04-06T20:19:08.683Z,6.4
2023-04-06T20:21:06.906Z,6.4
2023-04-06T20:23:06.885Z,6.4
2023-04-06T20:25:10.523Z,6.2
2023-04-06T20:27:06.904Z,6.2
2023-04-06T20:29:06.895Z,6.1
2023-04-06T20:31:07.374Z,6
2023-04-06T20:35:06.891Z,6
2023-04-06T20:37:07.406Z,5.9
2023-04-06T20:39:06.912Z,5.8
2023-04-06T20:41:11.446Z,5.7
2023-04-06T20:43:08.075Z,5.9
2023-04-06T20:45:07.324Z,6
2023-04-06T20:47:06.888Z,6
2023-04-06T20:49:07.770Z,6
2023-04-06T20:51:06.925Z,6
2023-04-06T20:53:07.267Z,6.1
2023-04-06T20:55:07.362Z,6.1
2023-04-06T20:57:06.927Z,6.2
2023-04-06T20:59:11.913Z,6.2
2023-04-06T21:01:07.844Z,6.2
2023-04-06T21:03:07.856Z,6.2
2023-04-06T21:05:07.363Z,6.2
2023-04-06T21:07:07.409Z,6.1
2023-04-06T21:09:06.900Z,6.1
2023-04-06T21:11:08.812Z,6.1
2023-04-06T21:13:07.381Z,6.1
2023-04-06T21:15:06.915Z,6.1
2023-04-06T21:17:09.731Z,6
2023-04-06T21:19:07.816Z,6.1
2023-04-06T21:21:06.980Z,6.1
2023-04-06T21:23:06.906Z,6.2
2023-04-06T21:25:07.790Z,6.2
2023-04-06T21:27:06.928Z,6
2023-04-06T21:29:06.893Z,6
2023-04-06T21:31:10.770Z,6
2023-04-06T21:33:06.967Z,6
2023-04-06T21:35:07.658Z,6
2023-04-06T21:37:07.787Z,6.1
2023-04-06T21:41:06.886Z,6.1
2023-04-06T21:43:08.696Z,6.1
2023-04-06T21:47:07.397Z,5.9
2023-04-06T21:49:07.401Z,5.9
2023-04-06T21:51:06.887Z,5.9
2023-04-06T21:53:07.675Z,6
2023-04-06T21:55:07.420Z,5.9
2023-04-06T21:57:06.926Z,6
2023-04-06T21:59:06.885Z,6
2023-04-06T22:01:10.779Z,6.1
2023-04-06T22:07:07.378Z,6
2023-04-06T22:09:07.615Z,6
2023-04-06T22:11:06.885Z,6
2023-04-06T22:13:07.480Z,5.9
2023-04-06T22:15:07.466Z,5.9
2023-04-06T22:17:06.888Z,6.1
2023-04-06T22:19:07.414Z,5.9
2023-04-06T22:21:06.915Z,5.8
2023-04-06T22:23:06.994Z,5.7
2023-04-06T22:27:07.352Z,5.7
2023-04-06T22:29:06.929Z,5.6
2023-04-06T22:31:07.397Z,5.6
2023-04-06T22:33:11.492Z,5.5
2023-04-06T22:35:06.926Z,5.5
2023-04-06T22:37:07.372Z,5.4
2023-04-06T22:39:07.008Z,5.3
2023-04-06T22:41:10.074Z,5.4
2023-04-06T22:43:07.389Z,5.5
2023-04-06T22:45:09.907Z,5.3
2023-04-06T22:47:07.391Z,5.1
2023-04-06T22:51:06.904Z,5.4
2023-04-06T22:53:07.378Z,5.3
2023-04-06T22:55:07.402Z,5.4
2023-04-06T22:57:06.931Z,5.5
2023-04-06T22:59:06.958Z,5.5
2023-04-06T23:01:07.414Z,5.5
2023-04-06T23:03:10.053Z,5.4
2023-04-06T23:07:07.826Z,5.5
2023-04-06T23:09:06.923Z,5.5
2023-04-06T23:11:06.901Z,5.6
2023-04-06T23:13:10.040Z,5.4
2023-04-06T23:15:07.308Z,5.4
2023-04-06T23:17:07.703Z,5.1
2023-04-06T23:19:07.421Z,5
2023-04-06T23:23:07.681Z,4.9
2023-04-06T23:25:07.374Z,4.9
2023-04-06T23:27:07.332Z,5
2023-04-06T23:29:06.931Z,5.1
2023-04-06T23:31:07.417Z,5.2
2023-04-06T23:33:10.476Z,5.4
2023-04-06T23:35:06.899Z,5.4
2023-04-06T23:37:07.443Z,5.4
2023-04-06T23:39:06.959Z,5.3
2023-04-06T23:41:07.396Z,5.3
2023-04-06T23:45:06.914Z,5.3
2023-04-06T23:49:07.404Z,5.6
2023-04-06T23:51:07.444Z,5.7
2023-04-06T23:53:07.691Z,5.7
2023-04-06T23:55:07.406Z,5.7
2023-04-06T23:57:06.916Z,5.6
2023-04-06T23:59:06.933Z,5.7
